WetterOnline ( https://www.wetteronline.de )

Wetter aktuell Meiningen

Aktuelles Wetter: Meiningen (453m)

6-stündlich | Neueste Meldungen
Ortszeit Temperatur Wetter
Di, 16.08. 20:00 25.1° C leicht bewölkt
Di, 16.08. 14:00 25.3° C fast wolkenlos
Di, 16.08. 8:00 15.0° C wolkenlos
Di, 16.08. 2:00 16.6° C leicht bewölkt
Mo, 15.08. 20:00 23.4° C fast wolkenlos
Mo, 15.08. 14:00 24.3° C bewölkt
Mo, 15.08. 8:00 18.9° C bewölkt
Mo, 15.08. 2:00 21.6° C leicht bewölkt
Ortszeit Temperatur Wetter
Di, 16.08. 23:30 19.4° C wolkig
Di, 16.08. 23:20 19.4° C wolkig
Di, 16.08. 23:10 19.9° C bewölkt
Di, 16.08. 23:00 20.7° C leicht bewölkt
Di, 16.08. 22:50 20.7° C leicht bewölkt
Di, 16.08. 22:40 21.0° C fast wolkenlos
Di, 16.08. 22:30 21.7° C wolkenlos
Di, 16.08. 22:00 22.3° C leicht bewölkt
Di, 16.08. 21:30 22.6° C leicht bewölkt
Di, 16.08. 21:00 23.0° C fast wolkenlos
Di, 16.08. 20:30 24.0° C fast wolkenlos
Ortszeit Relative Feuchte Sichtweite
Di, 16.08. 20:00 44% 65 km
Di, 16.08. 14:00 42% >70 km
Di, 16.08. 8:00 80% 40 km
Di, 16.08. 2:00 76% 55 km
Mo, 15.08. 20:00 52% 55 km
Mo, 15.08. 14:00 48% 55 km
Mo, 15.08. 8:00 69% 35 km
Mo, 15.08. 2:00 57% 45 km
Ortszeit Relative Feuchte Sichtweite
Di, 16.08. 23:30 62% 60 km
Di, 16.08. 23:20 62% -
Di, 16.08. 23:10 60% -
Di, 16.08. 23:00 57% 55 km
Di, 16.08. 22:50 57% -
Di, 16.08. 22:40 56% -
Di, 16.08. 22:30 54% 65 km
Di, 16.08. 22:00 52% 65 km
Di, 16.08. 21:30 51% >70 km
Di, 16.08. 21:00 50% 50 km
Di, 16.08. 20:30 47% 65 km
Ortszeit Niederschlagsmenge Niederschlagsart
Di, 16.08. 20:00 0.0 l/m2 in 12 Std. -
Di, 16.08. 14:00 0.0 l/m2 in 6 Std. -
Di, 16.08. 8:00 0.0 l/m2 in 12 Std. -
Di, 16.08. 2:00 0.0 l/m2 in 6 Std. -
Mo, 15.08. 20:00 0.1 l/m2 in 12 Std. -
Mo, 15.08. 14:00 0.1 l/m2 in 6 Std. Regen
Mo, 15.08. 8:00 0.0 l/m2 in 12 Std. -
Mo, 15.08. 2:00 0.0 l/m2 in 6 Std. -
Ortszeit Niederschlagsmenge Niederschlagsart
Di, 16.08. 23:30 0.0 l/m2 in 1 Std. -
Di, 16.08. 23:20 keine Meldung -
Di, 16.08. 23:10 keine Meldung -
Di, 16.08. 23:00 0.0 l/m2 in 1 Std. -
Di, 16.08. 22:50 keine Meldung -
Di, 16.08. 22:40 keine Meldung -
Di, 16.08. 22:30 0.0 l/m2 in 1 Std. -
Di, 16.08. 22:00 0.0 l/m2 in 1 Std. -
Di, 16.08. 21:30 0.0 l/m2 in 1 Std. -
Di, 16.08. 21:00 0.0 l/m2 in 1 Std. -
Di, 16.08. 20:30 0.0 l/m2 in 1 Std. -
Ortszeit Stärke Spitze Richtung
km/h Bft. km/h Grad Sektor
Di, 16.08. 20:00 6 1 28 190° S
Di, 16.08. 14:00 11 2 32 180° S
Di, 16.08. 8:00 9 2 13 160° S
Di, 16.08. 2:00 7 2 18 140° SO
Mo, 15.08. 20:00 11 2 36 280° W
Mo, 15.08. 14:00 18 3 32 170° S
Mo, 15.08. 8:00 7 2 11 170° S
Mo, 15.08. 2:00 6 1 13 160° S
Ortszeit Stärke Spitze Richtung
km/h Bft. km/h Grad Sektor
Di, 16.08. 23:30 6 1 7 140° SO
Di, 16.08. 23:20 6 1 - 140° SO
Di, 16.08. 23:10 6 1 - 160° S
Di, 16.08. 23:00 4 1 7 160° S
Di, 16.08. 22:50 4 1 - 160° S
Di, 16.08. 22:40 4 1 - 160° S
Di, 16.08. 22:30 6 1 7 160° S
Di, 16.08. 22:00 4 1 7 160° S
Di, 16.08. 21:30 4 1 7 160° S
Di, 16.08. 21:00 4 1 7 130° SO
Di, 16.08. 20:30 4 1 7 150° SO
Ortszeit Untergrenze Bedeckung Gattung
total tief tief mittel hoch
Di, 16.08. 20:00 10500 m 4/8 0/8 - - -
Di, 16.08. 14:00 1320 m 1/8 1/8 - - -
Di, 16.08. 8:00 - 0/8 0/8 - - -
Di, 16.08. 2:00 8700 m 4/8 0/8 - - -
Mo, 15.08. 20:00 1440 m 1/8 1/8 - - -
Mo, 15.08. 14:00 3300 m 8/8 7/8 - - -
Mo, 15.08. 8:00 3300 m 8/8 5/8 - - -
Mo, 15.08. 2:00 3300 m 4/8 1/8 - - -
Ortszeit Bedeckungsgrad in Achtel und Wolkenuntergrenze
Di, 16.08. 23:30 7(10500m)
Di, 16.08. 23:20 7(10500m)
Di, 16.08. 23:10 7
Di, 16.08. 23:00 5(10500m)
Di, 16.08. 22:50 5(10500m)
Di, 16.08. 22:40 1
Di, 16.08. 22:30 keine Wolken
Di, 16.08. 22:00 3(10500m)
Di, 16.08. 21:30 5(10500m)
Di, 16.08. 21:00 2(10500m)
Di, 16.08. 20:30 2(10500m)
Ortszeit Luftdruck NN (hPa) Tendenz (hPa in 3 Std.)
Di, 16.08. 20:00 1009 + 0,2
Di, 16.08. 14:00 1009 0,0
Di, 16.08. 8:00 1010 + 1,0
Di, 16.08. 2:00 1009 + 1,0
Mo, 15.08. 20:00 1005 + 1,0
Mo, 15.08. 14:00 1004 - 0,3
Mo, 15.08. 8:00 1005 - 0,1
Mo, 15.08. 2:00 1005 - 0,8
Ortszeit Luftdruck NN (hPa) Tendenz (hPa in 3 Std.)
Di, 16.08. 23:30 1011 + 1,1
Di, 16.08. 23:20 1011 keine Meldung
Di, 16.08. 23:10 1011 keine Meldung
Di, 16.08. 23:00 1011 + 1,1
Di, 16.08. 22:50 1011 keine Meldung
Di, 16.08. 22:40 1011 keine Meldung
Di, 16.08. 22:30 1011 + 0,9
Di, 16.08. 22:00 1010 + 0,7
Di, 16.08. 21:30 1010 + 0,6
Di, 16.08. 21:00 1010 + 0,4
Di, 16.08. 20:30 1009 + 0,3
Ortszeit Schneehöhe (cm)
Di, 16.08. 20:00 0
Di, 16.08. 14:00 0
Di, 16.08. 8:00 0
Di, 16.08. 2:00 0
Mo, 15.08. 20:00 0
Mo, 15.08. 14:00 0
Mo, 15.08. 8:00 0
Mo, 15.08. 2:00 0
Ortszeit Schneehöhe (cm)
Di, 16.08. 23:30 0
Di, 16.08. 23:20 0
Di, 16.08. 23:10 0
Di, 16.08. 23:00 0
Di, 16.08. 22:50 0
Di, 16.08. 22:40 0
Di, 16.08. 22:30 0
Di, 16.08. 22:00 0
Di, 16.08. 21:30 0
Di, 16.08. 21:00 0
Di, 16.08. 20:30 0
Link zu dieser Seite / Seite empfehlen

Das Wetter in ...